Time;durP1;ratioP1;P1;durP2;ratioP2;P2;SDS_P1;SDS_P2;PMS_P1;PMS_P2;Temp;Humidity;BMP_temperature;BMP_pressure;BME280_temperature;BME280_humidity;BME280_pressure;Samples;Min_cycle;Max_cycle;Signal;HPM_P1;HPM_P2
2021/12/06 00:01:02;;;;;;;45.10;20.17;;;;;;;;;;5074860;28;20057;-82
2021/12/06 00:03:33;;;;;;;46.28;20.20;;;;;;;;;;5079561;28;20037;-81
2021/12/06 00:06:00;;;;;;;;;;;;;;;;;;5080687;28;20041;-80
2021/12/06 00:08:26;;;;;;;41.92;18.77;;;;;;;;;;5087748;28;46374;-80
2021/12/06 00:10:52;;;;;;;44.35;18.75;;;;;;;;;;5080993;28;20142;-82
2021/12/06 00:13:22;;;;;;;41.60;18.98;;;;;;;;;;5082296;28;20929;-81
2021/12/06 00:15:50;;;;;;;42.95;18.85;;;;;;;;;;5072185;28;20049;-81
2021/12/06 00:18:17;;;;;;;39.60;18.98;;;;;;;;;;5073213;28;20049;-79
2021/12/06 00:20:44;;;;;;;45.97;19.55;;;;;;;;;;5080807;28;20049;-81
2021/12/06 00:23:11;;;;;;;44.92;19.98;;;;;;;;;;5081464;28;20045;-81
2021/12/06 00:25:37;;;;;;;44.72;20.10;;;;;;;;;;5071729;28;20068;-81
2021/12/06 00:28:04;;;;;;;43.13;19.05;;;;;;;;;;5077316;28;20075;-79
2021/12/06 00:30:30;;;;;;;45.08;19.50;;;;;;;;;;5080541;28;20072;-81
2021/12/06 00:32:56;;;;;;;45.13;20.45;;;;;;;;;;5081185;28;20103;-79
2021/12/06 00:35:24;;;;;;;48.42;20.98;;;;;;;;;;5082087;28;20049;-80
2021/12/06 00:38:09;;;;;;;45.80;19.10;;;;;;;;;;5080519;28;20041;-81
2021/12/06 00:40:37;;;;;;;43.67;18.38;;;;;;;;;;5080671;28;20609;-80
2021/12/06 00:43:04;;;;;;;45.03;19.40;;;;;;;;;;5081472;28;20855;-80
2021/12/06 00:45:31;;;;;;;43.90;20.42;;;;;;;;;;5082234;28;20033;-81
2021/12/06 00:47:57;;;;;;;42.20;19.20;;;;;;;;;;5074391;28;20060;-82
2021/12/06 00:50:25;;;;;;;44.90;18.88;;;;;;;;;;5080306;28;20041;-81
2021/12/06 00:52:52;;;;;;;46.10;19.75;;;;;;;;;;5075348;28;20049;-80
2021/12/06 00:55:19;;;;;;;46.88;21.40;;;;;;;;;;5085399;28;20045;-82
2021/12/06 00:57:46;;;;;;;43.90;19.02;;;;;;;;;;5082137;28;20917;-81
2021/12/06 01:00:17;;;;;;;47.78;20.38;;;;;;;;;;5081904;28;20053;-81
2021/12/06 01:02:44;;;;;;;48.72;20.23;;;;;;;;;;5079354;28;20553;-80
2021/12/06 01:05:10;;;;;;;48.05;20.33;;;;;;;;;;5080676;28;20037;-80
2021/12/06 01:07:37;;;;;;;45.47;20.10;;;;;;;;;;5079522;28;20083;-80
2021/12/06 01:10:05;;;;;;;47.50;19.98;;;;;;;;;;5079669;28;20048;-81
2021/12/06 01:12:32;;;;;;;55.17;22.30;;;;;;;;;;5068749;28;20083;-82
2021/12/06 01:14:58;;;;;;;50.22;21.23;;;;;;;;;;5072753;28;20072;-79
2021/12/06 01:17:24;;;;;;;53.05;21.77;;;;;;;;;;5074828;28;20064;-81
2021/12/06 01:19:51;;;;;;;50.53;20.67;;;;;;;;;;5080530;28;20075;-81
2021/12/06 01:22:33;;;;;;;50.53;20.63;;;;;;;;;;5079232;28;20174;-83
2021/12/06 01:25:07;;;;;;;54.70;22.25;;;;;;;;;;5081556;28;20044;-79
2021/12/06 01:28:17;;;;;;;51.70;21.52;;;;;;;;;;5072416;28;20053;-80
2021/12/06 01:41:35;;;;;;;47.05;20.70;;;;;;;;;;5079631;28;20041;-80
2021/12/06 01:44:05;;;;;;;49.70;21.13;;;;;;;;;;5074440;28;20065;-80
2021/12/06 01:46:32;;;;;;;47.13;20.52;;;;;;;;;;5080516;28;20072;-81
2021/12/06 01:48:58;;;;;;;50.53;21.65;;;;;;;;;;5080427;28;20087;-80
2021/12/06 01:51:25;;;;;;;53.80;22.38;;;;;;;;;;5070588;28;20025;-80
2021/12/06 01:53:52;;;;;;;52.72;21.73;;;;;;;;;;5070615;28;20049;-80
2021/12/06 01:56:18;;;;;;;54.22;20.83;;;;;;;;;;5079140;28;20061;-83
2021/12/06 01:58:44;;;;;;;50.75;20.63;;;;;;;;;;5079442;28;20029;-81
2021/12/06 02:01:11;;;;;;;49.03;21.38;;;;;;;;;;5079748;28;20131;-81
2021/12/06 02:03:38;;;;;;;49.30;21.52;;;;;;;;;;5079021;28;20049;-80
2021/12/06 02:06:04;;;;;;;54.58;21.00;;;;;;;;;;5079690;28;20135;-79
2021/12/06 02:08:30;;;;;;;54.22;22.02;;;;;;;;;;5078980;28;20041;-80
2021/12/06 02:11:01;;;;;;;52.67;21.85;;;;;;;;;;5079336;28;20041;-81
2021/12/06 02:13:39;;;;;;;;;;;;;;;;;;5076011;28;20045;-82
2021/12/06 02:16:06;;;;;;;48.20;20.60;;;;;;;;;;5082236;28;46685;-80
2021/12/06 02:18:46;;;;;;;53.15;19.85;;;;;;;;;;5079252;28;20051;-81
2021/12/06 02:21:17;;;;;;;54.03;21.88;;;;;;;;;;5083585;28;20083;-82
2021/12/06 02:23:43;;;;;;;59.40;22.30;;;;;;;;;;5082989;28;20053;-80
2021/12/06 02:26:10;;;;;;;60.83;23.25;;;;;;;;;;5077357;28;20033;-82
2021/12/06 02:28:37;;;;;;;56.10;21.55;;;;;;;;;;5081397;28;20053;-81
2021/12/06 02:31:03;;;;;;;61.75;22.70;;;;;;;;;;5074750;28;20042;-82
2021/12/06 02:33:30;;;;;;;55.72;22.20;;;;;;;;;;5076863;28;20069;-81
2021/12/06 02:35:57;;;;;;;55.88;22.00;;;;;;;;;;5083548;28;20905;-79
2021/12/06 02:38:23;;;;;;;56.30;21.95;;;;;;;;;;5083120;28;20041;-82
2021/12/06 02:40:50;;;;;;;54.80;21.33;;;;;;;;;;5082417;28;20037;-79
2021/12/06 02:43:16;;;;;;;56.90;22.52;;;;;;;;;;5082268;28;20064;-78
2021/12/06 02:45:43;;;;;;;57.33;22.40;;;;;;;;;;5082205;28;20053;-81
2021/12/06 02:48:10;;;;;;;58.13;22.88;;;;;;;;;;5078670;28;20034;-80
2021/12/06 02:50:38;;;;;;;55.38;22.10;;;;;;;;;;5070737;28;20061;-81
2021/12/06 02:53:05;;;;;;;58.85;20.98;;;;;;;;;;5086537;28;20854;-80
2021/12/06 02:55:35;;;;;;;58.00;21.45;;;;;;;;;;5082217;28;20072;-82
2021/12/06 02:58:15;;;;;;;53.03;21.63;;;;;;;;;;5082316;28;20029;-82
2021/12/06 03:00:43;;;;;;;51.00;21.38;;;;;;;;;;5081740;28;20487;-81
2021/12/06 03:03:09;;;;;;;61.15;22.88;;;;;;;;;;5081395;28;20052;-82
2021/12/06 03:05:37;;;;;;;56.10;20.75;;;;;;;;;;5081992;28;20045;-80
2021/12/06 03:08:04;;;;;;;54.85;21.40;;;;;;;;;;5071703;28;20057;-81
2021/12/06 03:10:30;;;;;;;61.83;22.00;;;;;;;;;;5088635;28;20068;-80
2021/12/06 03:12:57;;;;;;;59.05;21.23;;;;;;;;;;5082751;28;20064;-79
2021/12/06 03:15:23;;;;;;;61.72;22.10;;;;;;;;;;5082690;28;20049;-80
2021/12/06 03:17:50;;;;;;;56.42;20.80;;;;;;;;;;5079833;28;20049;-79
2021/12/06 03:20:16;;;;;;;64.22;24.08;;;;;;;;;;5076176;28;21559;-79
2021/12/06 03:22:43;;;;;;;54.28;20.48;;;;;;;;;;5081546;28;20060;-83
2021/12/06 03:25:11;;;;;;;63.58;21.15;;;;;;;;;;5079893;28;20819;-80
2021/12/06 03:27:37;;;;;;;55.30;21.15;;;;;;;;;;5082995;28;20086;-81
2021/12/06 03:30:05;;;;;;;62.05;21.73;;;;;;;;;;5082558;28;20088;-82
2021/12/06 03:32:31;;;;;;;59.75;20.65;;;;;;;;;;5079691;28;20108;-81
2021/12/06 03:34:58;;;;;;;58.03;21.48;;;;;;;;;;5075378;28;20209;-82
2021/12/06 03:37:25;;;;;;;64.07;22.27;;;;;;;;;;5071847;28;20075;-80
2021/12/06 03:39:51;;;;;;;60.80;22.38;;;;;;;;;;5070136;28;21455;-81
2021/12/06 03:42:19;;;;;;;58.53;20.98;;;;;;;;;;5079418;28;20080;-82
2021/12/06 03:44:46;;;;;;;58.65;20.98;;;;;;;;;;5090475;28;20033;-83
2021/12/06 03:47:15;;;;;;;61.35;21.50;;;;;;;;;;5081942;28;20590;-79
2021/12/06 03:49:42;;;;;;;52.60;21.45;;;;;;;;;;5080300;28;20893;-80
2021/12/06 03:52:09;;;;;;;56.42;22.65;;;;;;;;;;5070027;28;20053;-82
2021/12/06 03:54:35;;;;;;;60.00;22.35;;;;;;;;;;5078739;28;20053;-79
2021/12/06 03:57:03;;;;;;;58.80;21.98;;;;;;;;;;5082138;28;20045;-81
2021/12/06 03:59:30;;;;;;;58.85;21.40;;;;;;;;;;5075082;28;20056;-80
2021/12/06 04:01:56;;;;;;;60.30;21.13;;;;;;;;;;5084844;28;20058;-80
2021/12/06 04:04:23;;;;;;;63.67;21.38;;;;;;;;;;5081841;28;20052;-83
2021/12/06 04:06:50;;;;;;;60.60;21.98;;;;;;;;;;5072442;28;20143;-80
2021/12/06 04:09:16;;;;;;;65.53;22.67;;;;;;;;;;5081631;28;20053;-80
2021/12/06 04:11:43;;;;;;;59.92;21.50;;;;;;;;;;5075834;28;20037;-82
2021/12/06 04:14:09;;;;;;;63.85;21.83;;;;;;;;;;5078324;28;20079;-82
2021/12/06 04:16:36;;;;;;;63.50;21.90;;;;;;;;;;5073039;28;20053;-80
2021/12/06 04:19:04;;;;;;;64.80;21.40;;;;;;;;;;5090083;28;20060;-82
2021/12/06 04:21:30;;;;;;;57.42;21.30;;;;;;;;;;5074110;28;20052;-79
2021/12/06 04:23:57;;;;;;;59.38;21.33;;;;;;;;;;5081267;28;20064;-80
2021/12/06 04:26:24;;;;;;;55.15;21.73;;;;;;;;;;5074557;28;20058;-81
2021/12/06 04:28:58;;;;;;;64.40;22.35;;;;;;;;;;5083037;28;20053;-81
2021/12/06 04:31:30;;;;;;;68.97;21.85;;;;;;;;;;5081105;28;20056;-80
2021/12/06 04:33:57;;;;;;;61.70;20.80;;;;;;;;;;5080911;28;20045;-82
2021/12/06 04:36:35;;;;;;;60.40;21.90;;;;;;;;;;5073578;28;20053;-81
2021/12/06 04:39:03;;;;;;;60.58;21.63;;;;;;;;;;5082169;28;20084;-80
2021/12/06 04:41:29;;;;;;;62.78;21.95;;;;;;;;;;5078166;28;20049;-79
2021/12/06 04:43:55;;;;;;;61.88;22.48;;;;;;;;;;5081248;28;20041;-80
2021/12/06 04:46:22;;;;;;;63.60;21.42;;;;;;;;;;5075651;28;20045;-82
2021/12/06 04:48:48;;;;;;;60.80;21.88;;;;;;;;;;5076254;28;20059;-82
2021/12/06 04:51:16;;;;;;;68.30;22.20;;;;;;;;;;5073751;28;20468;-82
2021/12/06 04:53:43;;;;;;;64.68;22.63;;;;;;;;;;5095641;28;20049;-80
2021/12/06 04:56:09;;;;;;;57.47;21.23;;;;;;;;;;5082293;28;20108;-82
2021/12/06 04:58:40;;;;;;;67.70;23.45;;;;;;;;;;5080858;28;20049;-82
2021/12/06 05:01:11;;;;;;;65.30;22.67;;;;;;;;;;5080972;28;20049;-80
2021/12/06 05:03:39;;;;;;;70.20;23.05;;;;;;;;;;5078591;28;20049;-82
2021/12/06 05:06:11;;;;;;;69.30;23.35;;;;;;;;;;5074774;28;20041;-82
2021/12/06 05:08:40;;;;;;;64.63;22.15;;;;;;;;;;5080498;28;20041;-80
2021/12/06 05:11:07;;;;;;;61.55;22.23;;;;;;;;;;5081463;28;20049;-82
2021/12/06 05:13:34;;;;;;;68.45;22.85;;;;;;;;;;5072172;28;20953;-82
2021/12/06 05:16:01;;;;;;;65.78;22.63;;;;;;;;;;5094967;28;20053;-82
2021/12/06 05:18:27;;;;;;;62.90;23.10;;;;;;;;;;5064093;28;20100;-82
2021/12/06 05:20:53;;;;;;;61.55;22.40;;;;;;;;;;5080514;28;20048;-81
2021/12/06 05:23:20;;;;;;;54.70;20.85;;;;;;;;;;5081582;28;20037;-80
2021/12/06 05:25:47;;;;;;;55.70;20.80;;;;;;;;;;5084841;28;20057;-80
2021/12/06 05:28:14;;;;;;;63.38;22.70;;;;;;;;;;5081441;28;20894;-81
2021/12/06 05:30:42;;;;;;;61.13;21.17;;;;;;;;;;5071818;28;20872;-80
2021/12/06 05:33:17;;;;;;;68.18;22.92;;;;;;;;;;5079965;28;20068;-82
2021/12/06 05:35:44;;;;;;;60.92;22.42;;;;;;;;;;5080536;28;20255;-82
2021/12/06 05:38:12;;;;;;;62.83;22.50;;;;;;;;;;5075701;28;20063;-80
2021/12/06 05:40:38;;;;;;;63.38;22.42;;;;;;;;;;5081979;28;20041;-82
2021/12/06 05:43:04;;;;;;;64.50;22.60;;;;;;;;;;5081574;28;20068;-80
2021/12/06 05:45:32;;;;;;;63.75;21.63;;;;;;;;;;5073133;28;20045;-81
2021/12/06 05:47:59;;;;;;;57.78;21.63;;;;;;;;;;5070248;28;20084;-80
2021/12/06 05:50:25;;;;;;;61.58;22.15;;;;;;;;;;5074058;28;20111;-81
2021/12/06 05:52:54;;;;;;;60.88;22.52;;;;;;;;;;5080262;28;20041;-79
2021/12/06 05:55:22;;;;;;;61.13;21.63;;;;;;;;;;5082166;28;20511;-82
2021/12/06 05:57:49;;;;;;;64.65;23.17;;;;;;;;;;5083596;28;20064;-83
2021/12/06 06:00:17;;;;;;;60.55;22.83;;;;;;;;;;5099187;28;20044;-81
2021/12/06 06:02:46;;;;;;;65.10;22.85;;;;;;;;;;5081473;28;20071;-81
2021/12/06 06:05:13;;;;;;;64.80;23.58;;;;;;;;;;5081833;28;20057;-80
2021/12/06 06:07:39;;;;;;;61.45;21.98;;;;;;;;;;5082435;28;20072;-83
2021/12/06 06:10:06;;;;;;;66.57;22.90;;;;;;;;;;5076537;28;20072;-80
2021/12/06 06:12:32;;;;;;;63.40;24.85;;;;;;;;;;5075289;28;20816;-80
2021/12/06 06:14:59;;;;;;;68.15;24.73;;;;;;;;;;5083365;28;20057;-80
2021/12/06 06:17:27;;;;;;;65.68;23.65;;;;;;;;;;5076499;28;20061;-81
2021/12/06 06:19:56;;;;;;;69.60;24.23;;;;;;;;;;5079973;28;20095;-80
2021/12/06 06:22:23;;;;;;;66.05;24.13;;;;;;;;;;5077363;28;20051;-81
2021/12/06 06:24:49;;;;;;;56.53;22.27;;;;;;;;;;5086385;28;20049;-80
2021/12/06 06:27:15;;;;;;;71.40;24.55;;;;;;;;;;5083418;28;20076;-80
2021/12/06 06:29:44;;;;;;;66.25;24.52;;;;;;;;;;5079247;28;20041;-81
2021/12/06 06:32:10;;;;;;;65.50;23.15;;;;;;;;;;5086633;28;20569;-80
2021/12/06 06:34:36;;;;;;;61.15;23.10;;;;;;;;;;5088630;28;20057;-81
2021/12/06 06:37:03;;;;;;;66.05;24.13;;;;;;;;;;5078147;28;20037;-80
2021/12/06 06:39:29;;;;;;;70.03;23.80;;;;;;;;;;5086714;28;20052;-82
2021/12/06 06:41:56;;;;;;;70.80;24.58;;;;;;;;;;5084681;28;20053;-81
2021/12/06 06:44:22;;;;;;;67.80;22.67;;;;;;;;;;5067635;28;20056;-81
2021/12/06 06:46:49;;;;;;;72.22;24.58;;;;;;;;;;5085429;28;20071;-80
2021/12/06 06:49:16;;;;;;;71.00;25.02;;;;;;;;;;5082083;28;20049;-81
2021/12/06 06:51:46;;;;;;;68.40;24.17;;;;;;;;;;5080296;28;20135;-80
2021/12/06 06:54:12;;;;;;;62.60;22.42;;;;;;;;;;5078756;28;20061;-80
2021/12/06 06:56:39;;;;;;;66.53;24.17;;;;;;;;;;5077789;28;20060;-80
2021/12/06 06:59:06;;;;;;;61.63;23.95;;;;;;;;;;5072983;28;20629;-80
2021/12/06 07:01:33;;;;;;;66.53;23.50;;;;;;;;;;5069755;28;20143;-80
2021/12/06 07:04:04;;;;;;;66.25;24.33;;;;;;;;;;5065186;28;20887;-80
2021/12/06 07:06:30;;;;;;;61.80;24.52;;;;;;;;;;5067980;28;20057;-80
2021/12/06 07:08:57;;;;;;;59.78;22.70;;;;;;;;;;5083312;28;20068;-79
2021/12/06 07:11:25;;;;;;;73.22;24.65;;;;;;;;;;5078679;28;20052;-81
2021/12/06 07:13:52;;;;;;;62.45;24.27;;;;;;;;;;5074274;28;20104;-80
2021/12/06 07:16:18;;;;;;;67.97;23.80;;;;;;;;;;5077758;28;20099;-81
2021/12/06 07:18:45;;;;;;;64.75;23.35;;;;;;;;;;5080439;28;20052;-81
2021/12/06 07:21:12;;;;;;;65.65;24.63;;;;;;;;;;5079755;28;20934;-81
2021/12/06 07:23:40;;;;;;;68.03;24.17;;;;;;;;;;5079881;28;20566;-80
2021/12/06 07:26:07;;;;;;;70.30;23.30;;;;;;;;;;5082130;28;20106;-80
2021/12/06 07:28:34;;;;;;;69.53;24.48;;;;;;;;;;5079886;28;20056;-81
2021/12/06 07:31:02;;;;;;;69.53;25.27;;;;;;;;;;5080028;28;20049;-80
2021/12/06 07:33:29;;;;;;;61.97;24.40;;;;;;;;;;5079016;28;20164;-80
2021/12/06 07:35:56;;;;;;;66.50;23.35;;;;;;;;;;5075129;28;20053;-81
2021/12/06 07:38:22;;;;;;;67.28;25.48;;;;;;;;;;5074456;28;20095;-81
2021/12/06 07:40:50;;;;;;;65.25;25.08;;;;;;;;;;5077991;28;20056;-80
2021/12/06 07:43:17;;;;;;;68.07;25.67;;;;;;;;;;5077108;28;20512;-80
2021/12/06 07:45:44;;;;;;;66.85;25.17;;;;;;;;;;5077076;28;20496;-81
2021/12/06 07:48:10;;;;;;;65.00;24.98;;;;;;;;;;5077080;28;20053;-80
2021/12/06 07:50:37;;;;;;;72.18;24.30;;;;;;;;;;5061634;28;20050;-81
2021/12/06 07:53:03;;;;;;;63.42;24.02;;;;;;;;;;5074264;28;20053;-80
2021/12/06 07:55:34;;;;;;;65.32;24.77;;;;;;;;;;5076832;28;20098;-80
2021/12/06 07:58:02;;;;;;;71.10;26.88;;;;;;;;;;5075685;28;20107;-80
2021/12/06 08:00:29;;;;;;;66.50;23.85;;;;;;;;;;5064296;28;20554;-80
2021/12/06 08:02:56;;;;;;;67.50;25.13;;;;;;;;;;5076350;28;20029;-80
2021/12/06 08:05:35;;;;;;;61.33;23.42;;;;;;;;;;5074861;28;20888;-81
2021/12/06 08:08:27;;;;;;;63.25;24.15;;;;;;;;;;5076083;28;21036;-79
2021/12/06 08:10:59;;;;;;;68.47;25.40;;;;;;;;;;5071886;28;20041;-82
2021/12/06 08:13:27;;;;;;;62.22;24.40;;;;;;;;;;5075510;28;20053;-81
2021/12/06 08:15:57;;;;;;;66.53;24.50;;;;;;;;;;5077104;28;20055;-80
2021/12/06 08:18:24;;;;;;;68.18;24.50;;;;;;;;;;5077511;28;20081;-80
2021/12/06 08:20:50;;;;;;;63.22;25.08;;;;;;;;;;5079362;28;20041;-83
2021/12/06 08:23:17;;;;;;;61.50;24.83;;;;;;;;;;5081152;28;20072;-82
2021/12/06 08:25:46;;;;;;;61.35;24.25;;;;;;;;;;5079499;28;20118;-80
2021/12/06 08:28:12;;;;;;;64.50;25.15;;;;;;;;;;5067899;28;20107;-77
2021/12/06 08:30:39;;;;;;;62.50;24.92;;;;;;;;;;5068393;28;20591;-79
2021/12/06 08:33:06;;;;;;;65.45;23.98;;;;;;;;;;5066862;28;20112;-78
2021/12/06 08:35:34;;;;;;;57.55;22.38;;;;;;;;;;5068190;28;20542;-78
2021/12/06 08:38:02;;;;;;;69.30;25.58;;;;;;;;;;5066669;28;20576;-78
2021/12/06 08:40:28;;;;;;;68.88;25.00;;;;;;;;;;5066209;28;20064;-78
2021/12/06 08:42:55;;;;;;;62.78;23.02;;;;;;;;;;5066031;28;20049;-78
2021/12/06 08:45:22;;;;;;;59.78;24.15;;;;;;;;;;5064619;28;20057;-78
2021/12/06 08:47:48;;;;;;;61.47;23.80;;;;;;;;;;5066310;28;20508;-78
2021/12/06 08:50:19;;;;;;;68.05;26.13;;;;;;;;;;5072892;28;20080;-78
2021/12/06 08:52:46;;;;;;;66.97;25.63;;;;;;;;;;5065306;28;20048;-78
2021/12/06 08:55:13;;;;;;;66.07;24.05;;;;;;;;;;5065224;28;20073;-79
2021/12/06 08:57:42;;;;;;;62.65;24.67;;;;;;;;;;5064821;28;20077;-78
2021/12/06 09:00:13;;;;;;;65.72;25.48;;;;;;;;;;5065258;28;20170;-78
2021/12/06 09:02:40;;;;;;;71.72;25.75;;;;;;;;;;5062813;28;20059;-78
2021/12/06 09:05:24;;;;;;;66.90;23.48;;;;;;;;;;5054408;28;20103;-77
2021/12/06 09:07:51;;;;;;;71.93;25.23;;;;;;;;;;5058203;28;20072;-78
2021/12/06 09:10:17;;;;;;;65.18;25.10;;;;;;;;;;5065420;28;20053;-78
2021/12/06 09:12:44;;;;;;;58.25;23.83;;;;;;;;;;5068169;28;20064;-78
2021/12/06 09:15:13;;;;;;;62.72;24.00;;;;;;;;;;5066074;28;20657;-78
2021/12/06 09:17:45;;;;;;;55.33;22.75;;;;;;;;;;5064916;28;20049;-77
2021/12/06 09:20:13;;;;;;;61.30;23.60;;;;;;;;;;5067580;28;20061;-77
2021/12/06 09:22:40;;;;;;;55.30;23.98;;;;;;;;;;5068258;28;20037;-77
2021/12/06 09:25:08;;;;;;;57.45;25.33;;;;;;;;;;5068395;28;20111;-78
2021/12/06 09:27:34;;;;;;;52.72;23.48;;;;;;;;;;5063043;28;20057;-77
2021/12/06 09:30:02;;;;;;;56.15;23.63;;;;;;;;;;5061196;28;20053;-78
2021/12/06 09:32:28;;;;;;;53.20;24.40;;;;;;;;;;5066103;28;20111;-77
2021/12/06 09:34:58;;;;;;;54.13;22.70;;;;;;;;;;5064932;28;20084;-78
2021/12/06 09:37:25;;;;;;;54.83;24.38;;;;;;;;;;5068526;28;20107;-78
2021/12/06 09:39:52;;;;;;;61.65;24.67;;;;;;;;;;5065917;28;20099;-77
2021/12/06 09:42:19;;;;;;;56.42;23.70;;;;;;;;;;5061152;28;20107;-77
2021/12/06 09:44:46;;;;;;;55.50;23.15;;;;;;;;;;5067480;28;20061;-78
2021/12/06 09:47:12;;;;;;;51.08;22.95;;;;;;;;;;5066786;28;20053;-78
2021/12/06 09:49:39;;;;;;;57.70;24.35;;;;;;;;;;5063932;28;20057;-77
2021/12/06 09:52:07;;;;;;;55.55;23.25;;;;;;;;;;5065195;28;20053;-77
2021/12/06 09:54:35;;;;;;;55.33;24.42;;;;;;;;;;5064537;28;20103;-78
2021/12/06 09:57:03;;;;;;;64.95;25.20;;;;;;;;;;5063550;28;20091;-77
2021/12/06 09:59:31;;;;;;;62.03;24.52;;;;;;;;;;5066731;28;20100;-77
2021/12/06 10:01:59;;;;;;;57.75;23.52;;;;;;;;;;5064964;28;20648;-78
2021/12/06 10:04:27;;;;;;;60.30;24.60;;;;;;;;;;5066471;28;20047;-77
2021/12/06 10:06:54;;;;;;;64.97;23.33;;;;;;;;;;5066739;28;20147;-77
2021/12/06 10:09:21;;;;;;;58.15;22.92;;;;;;;;;;5065355;28;20101;-78
2021/12/06 10:11:48;;;;;;;63.15;24.60;;;;;;;;;;5063367;28;20052;-78
2021/12/06 10:14:15;;;;;;;61.28;25.00;;;;;;;;;;5062047;28;20046;-76
2021/12/06 10:16:42;;;;;;;62.75;23.73;;;;;;;;;;5060670;28;20093;-76
2021/12/06 10:19:09;;;;;;;58.65;23.50;;;;;;;;;;5067816;28;20037;-77
2021/12/06 10:21:36;;;;;;;58.92;23.98;;;;;;;;;;5065124;28;20606;-78
2021/12/06 10:24:07;;;;;;;64.50;24.98;;;;;;;;;;5065918;28;20076;-77
2021/12/06 10:26:33;;;;;;;58.60;24.85;;;;;;;;;;5065612;28;20045;-77
2021/12/06 10:29:05;;;;;;;72.85;26.77;;;;;;;;;;5067169;28;20053;-78
2021/12/06 10:31:32;;;;;;;67.78;27.05;;;;;;;;;;5067285;28;20067;-77
2021/12/06 10:33:59;;;;;;;66.50;25.83;;;;;;;;;;5060711;28;20064;-77
2021/12/06 10:36:27;;;;;;;74.03;26.65;;;;;;;;;;5068473;28;20053;-78
2021/12/06 10:38:58;;;;;;;71.90;25.83;;;;;;;;;;5067878;28;20522;-77
2021/12/06 10:41:26;;;;;;;67.00;26.23;;;;;;;;;;5067599;28;20174;-78
2021/12/06 10:44:04;;;;;;;73.00;27.23;;;;;;;;;;5060560;28;20092;-78
2021/12/06 10:46:31;;;;;;;66.45;25.95;;;;;;;;;;5085934;28;20057;-78
2021/12/06 10:48:59;;;;;;;80.00;25.25;;;;;;;;;;5058089;28;20049;-78
2021/12/06 10:51:26;;;;;;;68.72;25.05;;;;;;;;;;5060778;28;20193;-78
2021/12/06 10:54:01;;;;;;;69.85;24.50;;;;;;;;;;5069416;28;20053;-78
2021/12/06 10:56:37;;;;;;;78.97;27.30;;;;;;;;;;5068776;28;20045;-78
2021/12/06 10:59:09;;;;;;;70.68;25.70;;;;;;;;;;5069063;28;20060;-77
2021/12/06 11:01:35;;;;;;;74.38;27.25;;;;;;;;;;5068579;28;20055;-77
2021/12/06 11:04:04;;;;;;;79.68;26.45;;;;;;;;;;5069893;28;20543;-77
2021/12/06 11:06:32;;;;;;;79.55;26.85;;;;;;;;;;5065235;28;20057;-78
2021/12/06 11:09:00;;;;;;;81.75;27.27;;;;;;;;;;5069191;28;20144;-78
2021/12/06 11:11:29;;;;;;;76.80;26.73;;;;;;;;;;5068281;28;20115;-77
2021/12/06 11:14:00;;;;;;;76.18;26.52;;;;;;;;;;5066628;28;20207;-78
2021/12/06 11:16:28;;;;;;;76.30;27.58;;;;;;;;;;5059938;28;20115;-78
2021/12/06 11:18:56;;;;;;;82.13;26.92;;;;;;;;;;5062155;28;20168;-78
2021/12/06 11:21:43;;;;;;;77.18;27.05;;;;;;;;;;5069188;28;20166;-78
2021/12/06 11:24:14;;;;;;;85.10;27.38;;;;;;;;;;5072512;28;20088;-76
2021/12/06 11:26:43;;;;;;;80.03;26.95;;;;;;;;;;5067376;28;20080;-84
2021/12/06 11:29:12;;;;;;;77.95;25.85;;;;;;;;;;5069910;28;20061;-78
2021/12/06 11:31:39;;;;;;;74.88;25.70;;;;;;;;;;5068824;28;20497;-77
2021/12/06 11:34:07;;;;;;;72.63;24.70;;;;;;;;;;5067952;28;20059;-78
2021/12/06 11:36:34;;;;;;;68.00;25.25;;;;;;;;;;5061300;28;20519;-77
2021/12/06 11:39:03;;;;;;;69.10;24.10;;;;;;;;;;5069363;28;20053;-78
2021/12/06 11:41:30;;;;;;;65.10;23.63;;;;;;;;;;5076182;28;20045;-78
2021/12/06 11:44:11;;;;;;;64.68;23.60;;;;;;;;;;5065160;28;20107;-78
2021/12/06 11:46:37;;;;;;;69.50;24.50;;;;;;;;;;5068634;28;20518;-78
2021/12/06 11:49:14;;;;;;;57.70;23.02;;;;;;;;;;5070746;28;20139;-78
2021/12/06 11:51:40;;;;;;;56.15;22.02;;;;;;;;;;5070619;28;20061;-78
2021/12/06 11:54:06;;;;;;;59.60;20.85;;;;;;;;;;5070407;28;20975;-78
2021/12/06 11:56:34;;;;;;;52.17;20.42;;;;;;;;;;5069451;28;20049;-78
2021/12/06 11:59:06;;;;;;;48.17;18.92;;;;;;;;;;5070050;28;20138;-78
2021/12/06 12:01:34;;;;;;;47.53;17.83;;;;;;;;;;5067397;28;20061;-78
2021/12/06 12:04:21;;;;;;;47.03;18.80;;;;;;;;;;5064115;28;20049;-77
2021/12/06 12:06:47;;;;;;;50.67;19.88;;;;;;;;;;5069696;28;20044;-77
2021/12/06 12:09:14;;;;;;;54.05;19.23;;;;;;;;;;5067301;28;20570;-77
2021/12/06 12:11:59;;;;;;;48.42;17.92;;;;;;;;;;5058860;28;20053;-78
2021/12/06 12:14:34;;;;;;;49.38;19.77;;;;;;;;;;5070389;28;20041;-77
2021/12/06 12:17:04;;;;;;;48.53;18.50;;;;;;;;;;5068723;28;20833;-77
2021/12/06 12:19:31;;;;;;;45.85;18.15;;;;;;;;;;5068402;28;20052;-77
2021/12/06 12:21:58;;;;;;;43.20;17.92;;;;;;;;;;5068779;28;20126;-77
2021/12/06 12:24:24;;;;;;;50.58;19.15;;;;;;;;;;5066878;28;20116;-76
2021/12/06 12:26:57;;;;;;;47.95;17.85;;;;;;;;;;5066321;28;20064;-78
2021/12/06 12:29:26;;;;;;;56.13;20.33;;;;;;;;;;5051956;28;20096;-78
2021/12/06 12:31:58;;;;;;;46.40;18.92;;;;;;;;;;5059647;28;20491;-77
2021/12/06 12:34:26;;;;;;;45.33;18.35;;;;;;;;;;5068414;28;20874;-78
2021/12/06 12:36:53;;;;;;;44.03;17.95;;;;;;;;;;5068235;28;20052;-78
2021/12/06 12:39:19;;;;;;;34.38;14.85;;;;;;;;;;5070101;28;20049;-78
2021/12/06 12:41:50;;;;;;;38.92;16.98;;;;;;;;;;5068278;28;20087;-78
2021/12/06 12:44:17;;;;;;;;;;;;;;;;;;5066745;28;20056;-78
2021/12/06 12:46:45;;;;;;;40.25;15.80;;;;;;;;;;5068539;28;43797;-77
2021/12/06 12:49:17;;;;;;;38.05;15.20;;;;;;;;;;5088209;28;20079;-77
2021/12/06 12:51:45;;;;;;;37.10;14.68;;;;;;;;;;5083747;28;20877;-77
2021/12/06 12:54:17;;;;;;;43.92;16.73;;;;;;;;;;5069617;28;20057;-77
2021/12/06 12:56:58;;;;;;;38.38;16.00;;;;;;;;;;5068501;28;20056;-78
2021/12/06 12:59:30;;;;;;;36.50;14.60;;;;;;;;;;5068852;28;20099;-77
2021/12/06 13:02:07;;;;;;;35.53;14.18;;;;;;;;;;5068112;28;20064;-78
2021/12/06 13:04:52;;;;;;;36.38;14.13;;;;;;;;;;5066331;28;20135;-78
2021/12/06 13:07:18;;;;;;;35.88;14.55;;;;;;;;;;5059312;28;20509;-77
2021/12/06 13:09:44;;;;;;;43.72;15.57;;;;;;;;;;5069549;28;21199;-76
2021/12/06 13:12:12;;;;;;;42.15;15.32;;;;;;;;;;5066355;28;20080;-77
2021/12/06 13:14:44;;;;;;;45.83;16.08;;;;;;;;;;5067543;28;20490;-77
2021/12/06 13:17:21;;;;;;;45.03;15.48;;;;;;;;;;5061985;28;20096;-78
2021/12/06 13:22:19;;;;;;;46.63;15.55;;;;;;;;;;5071858;28;20114;-77
2021/12/06 13:24:48;;;;;;;44.65;16.08;;;;;;;;;;5066738;28;20158;-77
2021/12/06 13:27:17;;;;;;;43.85;16.13;;;;;;;;;;5067997;28;20435;-78
2021/12/06 13:29:48;;;;;;;36.72;14.75;;;;;;;;;;5060145;28;20103;-77
2021/12/06 13:32:27;;;;;;;45.03;15.95;;;;;;;;;;5066479;28;20045;-78
2021/12/06 13:34:54;;;;;;;39.78;15.00;;;;;;;;;;5067086;28;20092;-78
2021/12/06 13:37:25;;;;;;;47.25;16.55;;;;;;;;;;5063775;28;20115;-77
2021/12/06 13:39:51;;;;;;;45.75;16.35;;;;;;;;;;5080062;28;20888;-78
2021/12/06 13:42:37;;;;;;;53.45;18.08;;;;;;;;;;5065793;28;20049;-77
2021/12/06 13:45:06;;;;;;;45.83;15.52;;;;;;;;;;5064489;28;20093;-77
2021/12/06 13:47:32;;;;;;;43.08;16.58;;;;;;;;;;5065507;28;20063;-77
2021/12/06 13:49:59;;;;;;;45.75;16.10;;;;;;;;;;5066011;28;20581;-77
2021/12/06 13:52:33;;;;;;;42.22;14.85;;;;;;;;;;5065061;28;20053;-77
2021/12/06 13:55:00;;;;;;;37.00;14.55;;;;;;;;;;5066173;28;20207;-77
2021/12/06 13:57:28;;;;;;;39.63;15.63;;;;;;;;;;5067775;28;20053;-77
2021/12/06 13:59:57;;;;;;;33.60;14.15;;;;;;;;;;5065405;28;20092;-78
2021/12/06 14:02:27;;;;;;;34.53;14.77;;;;;;;;;;5068146;28;20529;-77
2021/12/06 14:04:55;;;;;;;32.42;12.20;;;;;;;;;;5067217;28;20112;-78
2021/12/06 14:07:23;;;;;;;34.60;13.10;;;;;;;;;;5068485;28;20135;-78
2021/12/06 14:09:50;;;;;;;33.78;12.57;;;;;;;;;;5069184;28;20052;-77
2021/12/06 14:12:18;;;;;;;29.50;12.48;;;;;;;;;;5068737;28;20134;-78
2021/12/06 14:14:49;;;;;;;29.40;13.05;;;;;;;;;;5074659;28;20037;-77
2021/12/06 14:17:16;;;;;;;26.73;11.80;;;;;;;;;;5070808;28;20057;-78
2021/12/06 14:19:44;;;;;;;28.63;12.02;;;;;;;;;;5070626;28;20226;-77
2021/12/06 14:22:11;;;;;;;29.70;12.20;;;;;;;;;;5069168;28;20053;-78
2021/12/06 14:24:38;;;;;;;26.45;11.38;;;;;;;;;;5066349;28;20061;-78
2021/12/06 14:27:06;;;;;;;29.33;12.65;;;;;;;;;;5069281;28;20545;-77
2021/12/06 14:29:33;;;;;;;28.15;12.27;;;;;;;;;;5070370;28;20126;-77
2021/12/06 14:32:01;;;;;;;26.50;11.25;;;;;;;;;;5068867;28;20057;-77
2021/12/06 14:34:29;;;;;;;27.52;11.93;;;;;;;;;;5069361;28;20089;-77
2021/12/06 14:36:55;;;;;;;30.02;14.25;;;;;;;;;;5066084;28;20063;-77
2021/12/06 14:39:26;;;;;;;31.70;13.70;;;;;;;;;;5070720;28;20053;-78